Time;durP1;ratioP1;P1;durP2;ratioP2;P2;SDS_P1;SDS_P2;PMS_P1;PMS_P2;Temp;Humidity;BMP_temperature;BMP_pressure;BME280_temperature;BME280_humidity;BME280_pressure;Samples;Min_cycle;Max_cycle;Signal;HPM_P1;HPM_P2
2021/12/18 00:01:16;;;;;;;30.00;13.75;;;;;;;0.21;100.00;97614.22;5002356;28;20173;-54
2021/12/18 00:03:44;;;;;;;31.08;14.98;;;;;;;0.39;100.00;97624.00;4995967;28;20425;-49
2021/12/18 00:06:12;;;;;;;26.92;13.40;;;;;;;0.37;100.00;97624.25;4991686;28;20149;-49
2021/12/18 00:08:39;;;;;;;31.00;15.02;;;;;;;0.37;100.00;97623.44;4995720;28;20044;-52
2021/12/18 00:11:07;;;;;;;26.73;13.38;;;;;;;0.20;100.00;97629.38;5009057;28;20137;-50
2021/12/18 00:13:34;;;;;;;30.65;14.50;;;;;;;0.51;100.00;97616.88;5006553;28;20046;-50
2021/12/18 00:16:02;;;;;;;29.27;15.20;;;;;;;0.05;100.00;97623.63;4989870;28;20050;-53
2021/12/18 00:18:30;;;;;;;31.13;15.32;;;;;;;0.14;100.00;97629.47;4995342;28;20129;-53
2021/12/18 00:20:59;;;;;;;28.90;13.48;;;;;;;0.12;100.00;97624.34;5011349;28;20491;-52
2021/12/18 00:23:26;;;;;;;29.00;14.25;;;;;;;0.02;100.00;97621.41;5007686;28;20088;-52
2021/12/18 00:25:54;;;;;;;29.17;14.00;;;;;;;0.02;100.00;97626.72;5000139;28;20042;-57
2021/12/18 00:28:21;;;;;;;31.33;14.68;;;;;;;-0.14;100.00;97630.00;4993883;28;20046;-50
2021/12/18 00:30:48;;;;;;;29.52;13.48;;;;;;;-0.04;100.00;97635.59;5002987;28;20084;-57
2021/12/18 00:33:15;;;;;;;32.40;14.57;;;;;;;-0.02;100.00;97641.53;4995897;28;20049;-58
2021/12/18 00:35:42;;;;;;;33.42;13.98;;;;;;;-0.09;100.00;97646.13;5001820;28;20133;-55
2021/12/18 00:38:09;;;;;;;34.53;15.73;;;;;;;-0.02;100.00;97641.53;5010270;28;20160;-55
2021/12/18 00:41:14;;;;;;;31.38;14.82;;;;;;;0.06;100.00;97651.03;5001137;28;20597;-52
2021/12/18 00:43:33;;;;;;;34.17;14.98;;;;;;;0.02;100.00;97655.19;5008239;28;20137;-53
2021/12/18 00:46:00;;;;;;;29.30;14.00;;;;;;;0.10;100.00;97657.53;4995600;28;20134;-52
2021/12/18 00:48:28;;;;;;;29.88;14.57;;;;;;;0.18;100.00;97659.91;5013368;23;20132;-49
2021/12/18 00:50:55;;;;;;;30.35;13.93;;;;;;;0.62;99.02;97658.75;5015611;28;20133;-47
2021/12/18 00:53:22;;;;;;;33.95;14.48;;;;;;;0.81;97.45;97659.47;5014877;28;20038;-47
2021/12/18 00:55:51;;;;;;;30.77;14.10;;;;;;;0.81;96.18;97667.47;4997039;28;20119;-50
2021/12/18 00:58:18;;;;;;;35.90;15.85;;;;;;;-0.11;100.00;97666.78;5006205;28;20050;-47
2021/12/18 01:00:46;;;;;;;32.15;14.55;;;;;;;0.32;100.00;97663.22;5015019;28;20038;-48
2021/12/18 01:03:19;;;;;;;31.10;14.52;;;;;;;0.45;99.08;97666.53;5014562;28;20045;-47
2021/12/18 01:05:47;;;;;;;37.60;15.60;;;;;;;0.69;97.35;97667.44;5014271;28;20129;-48
2021/12/18 01:08:14;;;;;;;35.58;16.45;;;;;;;0.66;97.08;97659.91;5001034;28;20562;-52
2021/12/18 01:13:17;;;;;;;37.13;15.80;;;;;;;0.60;98.01;97678.66;5014583;28;20034;-51
2021/12/18 01:15:49;;;;;;;39.95;17.20;;;;;;;0.92;96.13;97681.88;5009753;28;20056;-47
2021/12/18 01:23:49;;;;;;;35.88;16.73;;;;;;;0.16;98.55;97700.09;5013744;28;20136;-47
2021/12/18 01:26:17;;;;;;;38.13;18.55;;;;;;;-0.08;100.00;97693.78;4994356;28;20129;-48
2021/12/18 01:28:43;;;;;;;38.13;16.60;;;;;;;-0.17;100.00;97704.91;5008748;28;20041;-48
2021/12/18 01:31:10;;;;;;;41.50;17.48;;;;;;;-0.01;100.00;97699.03;5014391;28;20072;-46
2021/12/18 01:33:37;;;;;;;40.38;17.27;;;;;;;0.03;100.00;97696.72;5011521;28;20483;-46
2021/12/18 01:36:05;;;;;;;41.60;17.67;;;;;;;0.51;98.79;97699.44;5014185;28;20081;-47
2021/12/18 01:38:32;;;;;;;40.25;17.38;;;;;;;0.71;97.87;97704.50;5007416;28;20042;-48
2021/12/18 01:41:00;;;;;;;37.00;17.63;;;;;;;0.62;97.64;97708.53;5014700;28;20128;-49
2021/12/18 01:52:15;;;;;;;44.03;18.15;;;;;;;0.58;96.84;97688.69;5014954;28;20050;-48
2021/12/18 01:54:04;;;;;;;47.05;19.48;;;;;;;0.64;96.89;97687.81;5009592;28;20050;-47
2021/12/18 01:56:31;;;;;;;48.67;19.98;;;;;;;0.96;95.93;97672.41;5007955;28;20043;-49
2021/12/18 01:58:58;;;;;;;50.63;18.98;;;;;;;1.28;93.77;97674.78;5011947;28;20113;-49
2021/12/18 02:01:25;;;;;;;49.92;20.25;;;;;;;1.24;93.32;97668.28;5013756;28;20044;-50
2021/12/18 02:03:52;;;;;;;44.47;19.75;;;;;;;0.95;95.11;97646.78;5013687;28;20509;-46
2021/12/18 02:06:20;;;;;;;47.72;18.98;;;;;;;1.00;94.59;97652.22;5009118;28;20043;-46
2021/12/18 02:08:47;;;;;;;47.20;18.92;;;;;;;0.78;95.68;97664.44;5012765;28;20057;-47
2021/12/18 02:19:51;;;;;;;40.78;17.42;;;;;;;0.61;96.29;97653.63;4994887;28;20050;-46
2021/12/18 02:22:20;;;;;;;51.30;19.25;;;;;;;0.70;96.05;97652.28;5013260;28;20049;-46
2021/12/18 02:24:47;;;;;;;51.22;19.75;;;;;;;0.51;97.26;97651.50;5006614;28;20046;-45
2021/12/18 02:27:15;;;;;;;50.28;19.00;;;;;;;-0.11;99.98;97642.84;5013116;28;20049;-46
2021/12/18 02:29:42;;;;;;;44.55;18.00;;;;;;;-0.18;100.00;97652.75;5012838;28;20078;-46
2021/12/18 02:32:11;;;;;;;45.15;18.23;;;;;;;0.04;100.00;97653.13;5010998;28;20064;-45
2021/12/18 02:34:40;;;;;;;50.40;19.67;;;;;;;0.26;100.00;97661.44;4994554;28;20412;-45
2021/12/18 02:37:10;;;;;;;46.00;17.70;;;;;;;0.47;98.10;97659.13;5004148;28;20050;-47
2021/12/18 02:42:19;;;;;;;47.67;18.60;;;;;;;0.65;97.60;97644.97;5003248;28;20042;-47
2021/12/18 02:44:47;;;;;;;45.28;18.50;;;;;;;0.69;97.27;97640.81;4990378;28;20066;-48
2021/12/18 02:47:14;;;;;;;46.30;17.20;;;;;;;1.02;94.94;97642.16;4992796;28;20052;-49
2021/12/18 02:49:46;;;;;;;43.47;17.65;;;;;;;0.27;97.69;97631.16;5009347;28;20042;-49
2021/12/18 02:52:13;;;;;;;42.88;16.35;;;;;;;0.31;98.59;97633.13;5012316;28;20451;-47
2021/12/18 02:54:42;;;;;;;42.75;17.50;;;;;;;0.34;98.33;97634.53;5011755;28;20050;-45
2021/12/18 02:57:10;;;;;;;44.80;17.45;;;;;;;0.29;98.58;97637.03;5012360;28;20180;-46
2021/12/18 02:59:48;;;;;;;40.45;16.80;;;;;;;0.39;98.26;97630.16;5012111;28;20131;-46
2021/12/18 03:02:17;;;;;;;38.53;15.95;;;;;;;0.90;96.12;97622.66;4992567;28;20039;-49
2021/12/18 03:04:49;;;;;;;42.63;16.73;;;;;;;0.95;95.76;97617.47;5008820;28;20398;-47
2021/12/18 03:07:19;;;;;;;40.60;17.33;;;;;;;1.12;94.42;97615.75;5001948;28;20108;-47
2021/12/18 03:19:01;;;;;;;42.72;16.80;;;;;;;1.08;93.37;97630.59;5008901;28;20052;-48
2021/12/18 03:25:57;;;;;;;40.90;15.80;;;;;;;-0.45;100.00;97602.50;4996422;28;20084;-48
2021/12/18 03:28:26;;;;;;;40.00;17.55;;;;;;;0.16;100.00;97617.56;5008192;28;20050;-48
2021/12/18 03:30:55;;;;;;;42.55;14.73;;;;;;;0.25;99.36;97620.72;5011976;28;20046;-46
2021/12/18 03:33:26;;;;;;;39.72;15.05;;;;;;;0.27;98.29;97612.53;5008227;28;20470;-49
2021/12/18 03:35:53;;;;;;;40.00;15.52;;;;;;;0.02;99.79;97609.97;5011238;28;20049;-47
2021/12/18 03:38:20;;;;;;;37.88;15.80;;;;;;;-0.64;100.00;97603.53;5005928;28;20042;-46
2021/12/18 03:40:47;;;;;;;40.85;15.73;;;;;;;-0.61;100.00;97613.72;5011769;28;20128;-46
2021/12/18 03:43:14;;;;;;;43.80;16.83;;;;;;;-0.30;100.00;97615.44;5010793;28;20045;-49
2021/12/18 03:45:41;;;;;;;43.53;15.27;;;;;;;0.33;100.00;97608.97;5005859;28;20047;-50
2021/12/18 03:48:08;;;;;;;45.85;18.13;;;;;;;0.42;99.26;97618.22;5010054;28;20038;-50
2021/12/18 03:50:35;;;;;;;47.80;16.25;;;;;;;0.66;97.01;97613.81;5011708;28;20073;-47
2021/12/18 03:53:02;;;;;;;46.33;16.42;;;;;;;0.37;98.80;97618.13;5010940;28;20092;-45
2021/12/18 03:55:29;;;;;;;43.72;16.23;;;;;;;0.51;97.44;97614.22;5006272;28;20411;-44
2021/12/18 03:57:56;;;;;;;41.85;14.52;;;;;;;-0.22;100.00;97611.69;5003697;28;20136;-45
2021/12/18 04:00:23;;;;;;;42.40;15.18;;;;;;;0.33;100.00;97611.63;5011367;28;20128;-45
2021/12/18 04:02:50;;;;;;;43.13;17.58;;;;;;;0.52;97.59;97607.88;5011107;28;20092;-45
2021/12/18 04:05:17;;;;;;;41.72;15.60;;;;;;;0.47;97.47;97605.88;4995449;28;20061;-47
2021/12/18 04:07:48;;;;;;;45.45;15.75;;;;;;;0.36;98.27;97605.84;5003947;28;20042;-45
2021/12/18 04:10:17;;;;;;;47.22;16.05;;;;;;;0.51;98.18;97600.91;5015366;28;20116;-50
2021/12/18 04:12:46;;;;;;;41.38;15.70;;;;;;;0.61;96.99;97601.16;5002436;28;20044;-46
2021/12/18 04:15:13;;;;;;;43.42;15.88;;;;;;;0.65;96.71;97597.03;5015336;28;20415;-48
2021/12/18 04:17:40;;;;;;;43.17;15.77;;;;;;;0.79;95.67;97602.97;5011387;28;20140;-46
2021/12/18 04:20:07;;;;;;;42.10;15.95;;;;;;;0.95;95.05;97611.34;5015190;28;20073;-46
2021/12/18 04:22:34;;;;;;;39.90;15.25;;;;;;;0.70;96.14;97620.31;5014565;28;20045;-44
2021/12/18 04:25:02;;;;;;;40.10;14.98;;;;;;;0.88;96.32;97625.56;5013534;28;20069;-47
2021/12/18 04:27:29;;;;;;;40.67;14.45;;;;;;;0.88;95.29;97619.44;5011832;28;20099;-46
2021/12/18 04:29:56;;;;;;;39.58;15.23;;;;;;;0.83;94.69;97613.97;5014865;28;20081;-49
2021/12/18 04:32:23;;;;;;;38.10;14.77;;;;;;;1.03;94.19;97630.44;5015240;28;20070;-46
2021/12/18 04:34:50;;;;;;;34.38;13.25;;;;;;;0.82;96.07;97623.81;5010351;28;20447;-45
2021/12/18 04:37:17;;;;;;;35.72;13.38;;;;;;;0.83;95.55;97628.09;5000326;28;20050;-48
2021/12/18 04:39:44;;;;;;;37.42;14.35;;;;;;;0.90;94.46;97626.13;5006945;28;20049;-47
2021/12/18 04:42:11;;;;;;;31.40;13.23;;;;;;;0.51;96.09;97627.53;5014982;28;20553;-46
2021/12/18 04:44:38;;;;;;;34.47;12.52;;;;;;;0.27;97.54;97631.16;5007358;28;20555;-49
2021/12/18 04:47:05;;;;;;;32.67;12.73;;;;;;;0.38;96.86;97627.72;4997726;28;20043;-46
2021/12/18 04:49:32;;;;;;;36.92;13.30;;;;;;;0.35;97.24;97625.50;5006296;28;20049;-47
2021/12/18 04:51:59;;;;;;;33.65;13.05;;;;;;;0.40;96.97;97631.78;5015008;28;20065;-47
2021/12/18 04:54:26;;;;;;;34.67;13.18;;;;;;;0.35;96.95;97634.28;5010418;28;20543;-46
2021/12/18 04:56:53;;;;;;;35.47;12.82;;;;;;;0.45;97.82;97631.09;5014176;28;20505;-48
2021/12/18 04:59:19;;;;;;;30.45;12.85;;;;;;;0.10;98.32;97637.09;5014363;28;20048;-46
2021/12/18 05:01:46;;;;;;;33.53;11.68;;;;;;;-0.01;100.00;97633.31;5010473;28;20235;-46
2021/12/18 05:04:14;;;;;;;31.20;12.07;;;;;;;0.59;96.36;97629.91;5011332;28;20154;-45
2021/12/18 05:06:45;;;;;;;27.38;12.13;;;;;;;0.33;97.66;97632.91;5009526;28;20046;-46
2021/12/18 05:09:14;;;;;;;32.63;12.52;;;;;;;0.91;94.37;97627.78;5003065;28;20056;-47
2021/12/18 05:11:42;;;;;;;23.27;10.15;;;;;;;0.62;93.96;97632.09;5014720;28;20518;-46
2021/12/18 05:14:10;;;;;;;24.65;10.13;;;;;;;0.76;94.05;97640.72;5014267;28;20038;-48
2021/12/18 05:16:38;;;;;;;27.35;11.63;;;;;;;0.82;92.91;97641.66;4994296;28;20069;-48
2021/12/18 05:19:05;;;;;;;26.60;11.20;;;;;;;0.78;92.85;97643.13;5007634;28;20108;-49
2021/12/18 05:21:32;;;;;;;24.05;10.57;;;;;;;0.45;94.92;97645.22;5013069;28;20041;-46
2021/12/18 05:23:59;;;;;;;28.65;12.05;;;;;;;0.31;95.78;97648.28;5011090;28;20038;-48
2021/12/18 05:26:26;;;;;;;27.08;11.00;;;;;;;0.23;95.94;97641.44;5001207;28;20054;-46
2021/12/18 05:28:53;;;;;;;22.30;10.35;;;;;;;0.04;97.20;97640.63;5004121;28;20414;-49
2021/12/18 05:31:20;;;;;;;27.92;11.63;;;;;;;0.16;96.99;97643.34;5014108;28;20046;-47
2021/12/18 05:33:49;;;;;;;26.92;11.23;;;;;;;0.41;95.76;97629.94;5005825;28;20046;-48
2021/12/18 05:36:40;;;;;;;25.55;10.18;;;;;;;0.73;94.25;97624.38;5010458;28;20049;-47
2021/12/18 05:39:09;;;;;;;26.70;10.80;;;;;;;0.81;94.13;97632.84;5007270;28;20068;-48
2021/12/18 05:41:37;;;;;;;30.67;12.95;;;;;;;0.79;93.67;97634.13;5012596;28;20492;-47
2021/12/18 05:44:05;;;;;;;29.00;11.55;;;;;;;0.33;95.92;97636.38;5013387;28;20069;-48
2021/12/18 05:46:32;;;;;;;29.38;12.18;;;;;;;0.26;96.23;97634.84;4994620;28;20133;-48
2021/12/18 05:49:00;;;;;;;27.58;11.75;;;;;;;0.31;96.19;97632.31;5005662;28;20050;-45
2021/12/18 05:51:27;;;;;;;25.63;10.68;;;;;;;0.56;94.88;97635.66;5013378;28;20050;-47
2021/12/18 05:53:54;;;;;;;23.83;10.90;;;;;;;0.06;96.65;97643.88;5010349;28;20487;-45
2021/12/18 05:56:21;;;;;;;25.98;11.00;;;;;;;-0.10;99.26;97642.66;4993218;28;20052;-48
2021/12/18 05:58:48;;;;;;;25.95;11.18;;;;;;;0.14;97.53;97640.13;5004154;28;20126;-46
2021/12/18 06:01:15;;;;;;;21.33;10.20;;;;;;;0.72;95.93;97636.09;5012440;28;20046;-50
2021/12/18 06:03:42;;;;;;;27.98;11.93;;;;;;;0.94;93.58;97639.81;5011896;28;20467;-47
2021/12/18 06:06:09;;;;;;;31.88;12.95;;;;;;;1.02;92.91;97644.03;5010534;28;20129;-47
2021/12/18 06:08:38;;;;;;;28.48;12.75;;;;;;;0.88;93.23;97638.09;4992394;28;20050;-45
2021/12/18 06:11:12;;;;;;;26.63;12.15;;;;;;;0.74;95.31;97633.97;4999581;28;20439;-46
2021/12/18 06:13:41;;;;;;;27.58;12.23;;;;;;;0.98;93.42;97642.88;5013048;28;20685;-51
2021/12/18 06:16:08;;;;;;;28.02;11.60;;;;;;;0.78;93.79;97648.47;5007947;28;20052;-47
2021/12/18 06:18:37;;;;;;;24.63;11.60;;;;;;;0.72;93.90;97662.72;5013582;28;20049;-47
2021/12/18 06:21:04;;;;;;;27.67;11.60;;;;;;;0.42;95.60;97664.34;5013395;28;20042;-48
2021/12/18 06:23:31;;;;;;;30.85;11.85;;;;;;;0.45;96.01;97661.19;5013269;28;20049;-48
2021/12/18 06:25:58;;;;;;;27.58;12.68;;;;;;;0.50;95.75;97663.19;5002403;28;20484;-48
2021/12/18 06:28:25;;;;;;;27.35;11.80;;;;;;;0.43;97.48;97654.50;5012926;28;20685;-51
2021/12/18 06:30:53;;;;;;;28.10;11.20;;;;;;;0.89;95.47;97651.19;5012945;28;20426;-49
2021/12/18 06:33:20;;;;;;;30.15;11.93;;;;;;;0.69;94.10;97650.66;5013022;28;20471;-50
2021/12/18 06:35:47;;;;;;;29.10;11.98;;;;;;;0.74;94.77;97645.44;5009571;28;20053;-47
2021/12/18 06:38:15;;;;;;;31.55;13.23;;;;;;;0.68;94.81;97646.34;4995420;28;20703;-52
2021/12/18 06:40:42;;;;;;;25.50;10.82;;;;;;;0.44;95.94;97640.94;5011303;28;20046;-48
2021/12/18 06:43:09;;;;;;;33.67;12.55;;;;;;;0.16;97.47;97641.53;5012558;28;20046;-45
2021/12/18 06:45:36;;;;;;;30.80;12.77;;;;;;;0.47;96.82;97643.16;5010529;28;20046;-48
2021/12/18 06:48:04;;;;;;;33.10;13.25;;;;;;;0.61;95.38;97642.97;5012863;28;20080;-47
2021/12/18 06:50:31;;;;;;;29.45;12.07;;;;;;;0.55;95.08;97631.38;5012644;28;20117;-49
2021/12/18 06:52:59;;;;;;;25.77;11.05;;;;;;;0.38;96.67;97639.19;5012116;28;20112;-49
2021/12/18 06:55:26;;;;;;;27.40;12.02;;;;;;;0.55;95.96;97639.34;5011251;28;20054;-48
2021/12/18 06:57:53;;;;;;;28.92;11.75;;;;;;;0.86;94.21;97637.50;5012153;28;20045;-46
2021/12/18 07:00:22;;;;;;;29.05;12.82;;;;;;;0.61;94.61;97633.13;5012737;28;20115;-46
2021/12/18 07:02:49;;;;;;;29.13;12.23;;;;;;;0.65;94.33;97636.97;5012128;28;20132;-51
2021/12/18 07:05:16;;;;;;;30.45;12.57;;;;;;;0.62;94.54;97636.63;5000946;28;20050;-47
2021/12/18 07:07:44;;;;;;;23.75;10.90;;;;;;;0.38;95.71;97631.19;5001860;28;20052;-48
2021/12/18 07:10:13;;;;;;;22.38;10.63;;;;;;;0.53;94.75;97625.47;5011258;28;20136;-50
2021/12/18 07:12:41;;;;;;;20.83;10.30;;;;;;;0.17;96.03;97629.84;5012305;28;20441;-50
2021/12/18 07:15:09;;;;;;;23.27;10.05;;;;;;;-0.10;97.29;97632.00;5011981;28;20525;-49
2021/12/18 07:17:39;;;;;;;19.90;8.60;;;;;;;-0.25;98.25;97637.69;4995752;28;20053;-47
2021/12/18 07:20:08;;;;;;;20.27;8.85;;;;;;;-0.22;98.17;97639.09;5012651;28;20041;-47
2021/12/18 07:22:37;;;;;;;22.90;10.35;;;;;;;0.09;96.53;97634.63;5012369;28;20049;-49
2021/12/18 07:25:04;;;;;;;20.92;9.98;;;;;;;0.16;96.03;97630.88;5011422;28;20590;-46
2021/12/18 07:27:31;;;;;;;20.40;8.13;;;;;;;0.08;96.14;97628.50;5010205;28;20076;-50
2021/12/18 07:29:58;;;;;;;22.70;10.07;;;;;;;0.57;94.80;97631.16;5010767;28;20510;-49
2021/12/18 07:32:27;;;;;;;21.23;9.88;;;;;;;0.45;94.43;97629.25;5007462;28;20050;-47
2021/12/18 07:34:54;;;;;;;21.38;9.98;;;;;;;0.62;93.59;97629.44;4995502;28;20506;-48
2021/12/18 07:37:23;;;;;;;22.35;10.35;;;;;;;0.07;96.15;97632.22;5001584;28;20141;-47
2021/12/18 07:39:53;;;;;;;21.05;9.73;;;;;;;0.37;95.11;97642.06;5004586;28;20141;-47
2021/12/18 07:42:21;;;;;;;21.70;10.77;;;;;;;0.05;96.53;97628.94;5011556;28;20046;-49
2021/12/18 07:44:48;;;;;;;23.75;10.52;;;;;;;-0.06;97.41;97629.72;4994595;28;20612;-48
2021/12/18 07:47:16;;;;;;;23.85;10.48;;;;;;;0.03;97.70;97630.19;5009658;28;20052;-47
2021/12/18 07:49:43;;;;;;;24.30;11.00;;;;;;;0.05;97.32;97634.28;5011559;28;20144;-49
2021/12/18 07:52:13;;;;;;;24.20;10.32;;;;;;;-0.03;97.80;97643.38;5011867;28;20038;-46
2021/12/18 07:54:41;;;;;;;24.35;11.40;;;;;;;0.37;95.70;97626.09;5004692;28;20408;-48
2021/12/18 07:57:08;;;;;;;24.15;11.35;;;;;;;0.13;96.54;97633.97;5011065;28;20056;-48
2021/12/18 07:59:35;;;;;;;21.67;10.55;;;;;;;0.22;96.63;97640.59;5011930;28;20057;-47
2021/12/18 08:02:04;;;;;;;24.50;10.82;;;;;;;0.67;95.00;97637.53;5011968;28;20121;-47
2021/12/18 08:04:33;;;;;;;23.17;11.15;;;;;;;0.72;93.46;97641.41;4992141;28;20077;-49
2021/12/18 08:07:01;;;;;;;22.13;10.35;;;;;;;0.31;95.70;97642.97;5003291;28;20118;-47
2021/12/18 08:09:29;;;;;;;20.80;10.48;;;;;;;0.60;94.03;97641.34;4990994;28;20050;-47
2021/12/18 08:11:56;;;;;;;23.50;10.65;;;;;;;0.36;95.54;97648.44;5009918;28;20052;-47
2021/12/18 08:14:23;;;;;;;23.23;10.50;;;;;;;0.20;96.06;97637.38;5010489;28;20089;-46
2021/12/18 08:16:50;;;;;;;22.58;9.90;;;;;;;0.22;96.11;97653.91;4996955;28;20046;-47
2021/12/18 08:19:17;;;;;;;22.65;10.98;;;;;;;0.09;96.25;97645.28;4995981;28;20129;-47
2021/12/18 08:21:44;;;;;;;22.65;11.02;;;;;;;0.39;95.46;97647.97;5011719;28;20539;-50
2021/12/18 08:24:11;;;;;;;23.05;11.13;;;;;;;0.14;96.51;97646.25;5010956;28;20406;-51
2021/12/18 08:26:38;;;;;;;26.40;10.55;;;;;;;0.08;96.98;97649.78;5010968;28;20483;-48
2021/12/18 08:29:05;;;;;;;26.48;10.95;;;;;;;0.04;97.59;97647.81;5011710;28;20104;-49
2021/12/18 08:31:32;;;;;;;28.65;11.90;;;;;;;0.06;97.15;97649.19;5011796;28;20046;-50
2021/12/18 08:33:59;;;;;;;24.45;11.05;;;;;;;0.31;96.12;97646.44;4994655;28;20121;-51
2021/12/18 08:36:26;;;;;;;24.08;11.73;;;;;;;0.29;96.19;97642.38;5008105;28;20048;-46
2021/12/18 08:38:53;;;;;;;25.95;11.30;;;;;;;0.27;96.56;97642.63;5002690;28;20410;-47
2021/12/18 08:41:21;;;;;;;25.92;11.80;;;;;;;0.47;95.48;97642.34;5010014;28;20430;-47
2021/12/18 08:43:49;;;;;;;23.23;10.52;;;;;;;0.51;95.42;97643.50;5011595;28;20133;-49
2021/12/18 08:46:16;;;;;;;21.98;10.65;;;;;;;-0.03;97.70;97640.72;5005485;28;20061;-50
2021/12/18 08:48:43;;;;;;;24.67;11.05;;;;;;;0.32;96.30;97649.91;5000824;28;20509;-50
2021/12/18 08:51:11;;;;;;;22.90;11.65;;;;;;;-0.25;98.35;97640.34;5011031;28;20264;-50
2021/12/18 08:53:38;;;;;;;21.48;10.30;;;;;;;-0.02;98.97;97650.31;5013054;28;20120;-47
2021/12/18 08:56:05;;;;;;;24.02;11.30;;;;;;;-0.17;98.99;97646.41;5007621;28;20390;-47
2021/12/18 08:58:32;;;;;;;21.75;10.55;;;;;;;0.05;98.65;97646.78;5015015;28;20125;-46
2021/12/18 09:01:00;;;;;;;20.33;9.32;;;;;;;0.47;96.06;97637.03;5014622;28;20046;-47
2021/12/18 09:03:27;;;;;;;23.65;10.13;;;;;;;0.02;96.70;97639.22;5001262;28;20129;-49
2021/12/18 09:05:54;;;;;;;22.25;9.82;;;;;;;-0.35;99.37;97653.34;5003317;28;20499;-49
2021/12/18 09:08:21;;;;;;;23.65;10.55;;;;;;;0.45;96.08;97649.75;4992846;28;20065;-46
2021/12/18 09:10:49;;;;;;;20.27;10.30;;;;;;;0.52;95.92;97639.84;5014165;28;20488;-50
2021/12/18 09:13:17;;;;;;;24.20;10.38;;;;;;;0.63;95.36;97641.72;5014252;28;20125;-49
2021/12/18 09:15:44;;;;;;;23.95;11.02;;;;;;;0.56;95.21;97643.66;5012365;28;20029;-49
2021/12/18 09:18:11;;;;;;;24.52;11.00;;;;;;;0.65;94.73;97644.13;5014342;28;20042;-47
2021/12/18 09:20:41;;;;;;;26.58;11.32;;;;;;;0.69;94.01;97635.47;5013966;28;20069;-48
2021/12/18 09:23:13;;;;;;;22.52;10.75;;;;;;;0.64;94.74;97637.19;5014306;28;20084;-50
2021/12/18 09:25:40;;;;;;;23.33;10.80;;;;;;;0.50;95.46;97639.25;4999720;28;20346;-47
2021/12/18 09:28:08;;;;;;;25.88;11.85;;;;;;;0.70;94.45;97631.78;5010112;28;20049;-46
2021/12/18 09:30:36;;;;;;;23.90;11.45;;;;;;;0.60;94.72;97636.03;4994642;28;20046;-49
2021/12/18 09:33:03;;;;;;;22.13;10.40;;;;;;;0.47;95.60;97637.03;4994609;28;20462;-50
2021/12/18 09:35:30;;;;;;;24.98;11.75;;;;;;;0.99;93.56;97639.97;4998651;28;20099;-48
2021/12/18 09:37:57;;;;;;;23.38;12.20;;;;;;;0.88;93.04;97635.44;4999200;28;20387;-47
2021/12/18 09:40:24;;;;;;;26.83;12.02;;;;;;;0.86;93.07;97637.50;5013365;28;20034;-46
2021/12/18 09:42:51;;;;;;;23.10;11.07;;;;;;;0.69;93.66;97635.47;5012711;28;20470;-51
2021/12/18 09:45:19;;;;;;;26.08;12.18;;;;;;;0.60;95.30;97631.50;5011919;28;20431;-47
2021/12/18 09:47:46;;;;;;;27.63;11.88;;;;;;;0.71;94.79;97627.25;5013160;28;20100;-46
2021/12/18 09:50:15;;;;;;;24.60;11.52;;;;;;;0.72;94.50;97622.75;5013491;28;20118;-48
2021/12/18 09:52:42;;;;;;;25.20;11.30;;;;;;;0.62;94.26;97628.63;5010138;28;20411;-47
2021/12/18 09:55:10;;;;;;;22.83;11.07;;;;;;;-0.11;97.22;97618.91;5010944;28;20120;-48
2021/12/18 09:57:38;;;;;;;21.40;10.05;;;;;;;-0.09;98.37;97607.00;5013201;28;20204;-47
2021/12/18 10:00:09;;;;;;;22.35;10.18;;;;;;;-0.26;99.09;97612.13;5013489;28;20061;-50
2021/12/18 10:02:37;;;;;;;24.40;11.32;;;;;;;0.21;97.56;97616.88;5010019;28;20121;-47
2021/12/18 10:05:05;;;;;;;24.20;11.43;;;;;;;0.47;95.88;97616.53;5012916;28;20048;-48
2021/12/18 10:07:32;;;;;;;24.63;11.20;;;;;;;0.79;94.59;97612.81;4992951;28;20126;-46
2021/12/18 10:10:00;;;;;;;21.00;10.88;;;;;;;0.43;95.37;97609.22;5004132;28;20104;-49
2021/12/18 10:12:32;;;;;;;26.98;11.70;;;;;;;0.89;93.90;97608.53;5012899;28;20045;-45
2021/12/18 10:15:01;;;;;;;20.67;10.55;;;;;;;1.06;93.18;97603.34;5008722;28;20439;-45
2021/12/18 10:17:31;;;;;;;23.92;11.00;;;;;;;0.52;94.68;97599.88;5012189;28;20049;-50
2021/12/18 10:20:10;;;;;;;25.92;11.07;;;;;;;0.96;92.58;97594.31;5013264;28;20041;-48
2021/12/18 10:22:47;;;;;;;24.08;11.20;;;;;;;0.72;93.98;97590.78;5012832;28;20045;-50
2021/12/18 10:25:27;;;;;;;23.08;11.40;;;;;;;0.91;92.60;97597.63;5010947;28;20045;-45
2021/12/18 10:28:07;;;;;;;20.88;10.70;;;;;;;0.77;93.70;97588.25;5006364;28;20439;-47
2021/12/18 10:30:35;;;;;;;26.83;10.95;;;;;;;0.90;93.08;97596.81;5012938;28;20042;-47
2021/12/18 10:33:06;;;;;;;23.67;10.80;;;;;;;1.25;92.05;97595.25;5006208;28;20077;-46
2021/12/18 10:35:37;;;;;;;24.63;11.45;;;;;;;0.84;93.38;97599.59;5004998;28;20458;-45
2021/12/18 10:38:04;;;;;;;25.40;10.98;;;;;;;0.90;92.24;97596.03;5007665;28;20411;-47
2021/12/18 10:40:43;;;;;;;25.70;11.85;;;;;;;0.41;94.72;97597.97;5012352;28;20132;-49
2021/12/18 10:43:11;;;;;;;22.30;10.57;;;;;;;1.17;92.69;97594.56;5012946;28;20077;-47
2021/12/18 10:45:38;;;;;;;21.95;10.32;;;;;;;1.05;91.83;97587.59;5005592;28;20530;-46
2021/12/18 10:48:08;;;;;;;23.02;10.45;;;;;;;1.12;92.44;97590.94;4993319;28;20479;-46
2021/12/18 10:50:40;;;;;;;24.10;11.55;;;;;;;1.15;92.19;97596.63;5012345;28;20455;-48
2021/12/18 10:53:18;;;;;;;23.83;10.65;;;;;;;1.09;91.35;97592.22;5012873;28;20522;-45
2021/12/18 10:55:56;;;;;;;21.63;10.82;;;;;;;1.26;91.34;97595.00;5006802;28;20069;-50
2021/12/18 10:58:32;;;;;;;22.85;10.80;;;;;;;1.06;92.23;97592.69;5012267;28;20118;-48
2021/12/18 11:01:03;;;;;;;22.98;10.52;;;;;;;0.92;92.60;97589.44;5012358;28;20042;-46
2021/12/18 11:03:32;;;;;;;21.17;11.00;;;;;;;0.81;93.29;97584.88;5007827;28;20053;-47
2021/12/18 11:06:26;;;;;;;24.23;11.43;;;;;;;0.92;93.09;97575.28;5007846;28;20414;-48
2021/12/18 11:08:54;;;;;;;24.08;11.60;;;;;;;0.86;92.85;97571.69;5008857;28;20057;-48
2021/12/18 11:14:04;;;;;;;23.45;11.40;;;;;;;0.86;92.75;97566.34;5011955;28;20049;-44
2021/12/18 11:16:36;;;;;;;26.52;10.38;;;;;;;0.85;92.99;97554.09;4998791;28;20050;-46
2021/12/18 11:19:05;;;;;;;23.30;10.95;;;;;;;0.99;92.50;97548.53;5010680;28;20391;-48
2021/12/18 11:21:34;;;;;;;27.05;11.27;;;;;;;0.94;93.35;97549.22;5012258;28;20054;-51
2021/12/18 11:24:07;;;;;;;24.13;10.93;;;;;;;0.63;92.51;97537.81;5007863;28;20510;-46
2021/12/18 11:26:49;;;;;;;28.75;13.07;;;;;;;0.40;93.88;97535.13;5010469;28;20113;-51
2021/12/18 11:29:33;;;;;;;25.83;11.68;;;;;;;0.73;92.10;97533.78;5010268;28;20044;-47
2021/12/18 11:32:02;;;;;;;21.38;10.45;;;;;;;0.98;92.91;97531.72;5006036;28;20076;-49
2021/12/18 11:34:29;;;;;;;23.15;11.02;;;;;;;0.88;92.64;97526.19;5011182;28;20064;-48
2021/12/18 11:36:59;;;;;;;22.23;10.85;;;;;;;0.95;92.11;97520.72;5006543;28;20041;-51
2021/12/18 11:39:30;;;;;;;26.70;12.35;;;;;;;0.99;92.31;97517.34;5011166;28;20439;-47
2021/12/18 11:41:59;;;;;;;22.75;10.43;;;;;;;1.19;91.41;97521.53;5011837;28;20125;-50
2021/12/18 11:44:31;;;;;;;25.38;10.80;;;;;;;1.54;89.75;97518.81;5009553;28;20042;-47
2021/12/18 11:47:22;;;;;;;22.52;10.23;;;;;;;0.43;92.71;97514.16;5007321;28;20037;-49
2021/12/18 11:49:51;;;;;;;21.70;10.40;;;;;;;0.21;95.11;97511.22;5012298;28;20046;-46
2021/12/18 11:52:18;;;;;;;23.15;10.18;;;;;;;0.52;95.18;97506.66;5011478;28;20052;-46
2021/12/18 11:54:51;;;;;;;24.98;11.02;;;;;;;0.96;93.54;97514.34;5009147;28;20034;-51
2021/12/18 11:57:38;;;;;;;;;;;;;;;1.29;91.79;97506.56;5008781;28;20528;-47
2021/12/18 12:00:28;;;;;;;25.63;10.35;;;;;;;1.43;90.51;97512.47;5021636;28;19921;-47
2021/12/18 12:02:57;;;;;;;25.02;11.00;;;;;;;1.60;88.89;97508.00;5006614;28;20038;-49
2021/12/18 12:05:48;;;;;;;23.60;11.32;;;;;;;1.41;89.90;97503.88;5008040;28;20146;-46
2021/12/18 12:08:19;;;;;;;24.05;10.20;;;;;;;1.44;90.04;97495.41;5002506;28;20056;-50
2021/12/18 12:11:15;;;;;;;24.67;10.57;;;;;;;1.58;89.27;97488.75;5008132;28;20050;-46
2021/12/18 12:14:16;;;;;;;25.40;11.75;;;;;;;1.54;89.87;97486.81;5013298;28;20100;-46
2021/12/18 12:16:43;;;;;;;19.88;10.02;;;;;;;1.77;88.76;97497.41;4991423;28;20045;-47